sensor_id;sensor_type;location;lat;lon;timestamp;pressure;altitude;pressure_sealevel;temperature;humidity
9899;BME280;4988;49.238;6.698;2022-12-11T00:01:21;98712.84;;;-2.81;100.00
9899;BME280;4988;49.238;6.698;2022-12-11T00:03:46;98712.84;;;-2.75;100.00
9899;BME280;4988;49.238;6.698;2022-12-11T00:06:14;98697.19;;;-2.73;100.00
9899;BME280;4988;49.238;6.698;2022-12-11T00:08:40;98699.78;;;-2.70;100.00
9899;BME280;4988;49.238;6.698;2022-12-11T00:11:11;98698.06;;;-2.65;100.00
9899;BME280;4988;49.238;6.698;2022-12-11T00:13:36;98699.81;;;-2.61;100.00
9899;BME280;4988;49.238;6.698;2022-12-11T00:16:02;98692.84;;;-2.62;100.00
9899;BME280;4988;49.238;6.698;2022-12-11T00:18:27;98692.88;;;-2.59;100.00
9899;BME280;4988;49.238;6.698;2022-12-11T00:20:52;98690.22;;;-2.54;100.00
9899;BME280;4988;49.238;6.698;2022-12-11T00:23:18;98685.88;;;-2.50;100.00
9899;BME280;4988;49.238;6.698;2022-12-11T00:25:44;98681.56;;;-2.53;100.00
9899;BME280;4988;49.238;6.698;2022-12-11T00:28:15;98689.38;;;-2.54;100.00
9899;BME280;4988;49.238;6.698;2022-12-11T00:30:43;98686.75;;;-2.47;100.00
9899;BME280;4988;49.238;6.698;2022-12-11T00:33:10;98686.75;;;-2.37;100.00
9899;BME280;4988;49.238;6.698;2022-12-11T00:35:46;98684.97;;;-2.29;100.00
9899;BME280;4988;49.238;6.698;2022-12-11T00:38:17;98682.34;;;-2.04;100.00
9899;BME280;4988;49.238;6.698;2022-12-11T00:40:43;98676.25;;;-2.03;100.00
9899;BME280;4988;49.238;6.698;2022-12-11T00:43:09;98678.03;;;-2.07;100.00
9899;BME280;4988;49.238;6.698;2022-12-11T00:45:40;98686.69;;;-2.10;100.00
9899;BME280;4988;49.238;6.698;2022-12-11T00:48:06;98678.00;;;-2.15;100.00
9899;BME280;4988;49.238;6.698;2022-12-11T00:50:32;98686.72;;;-2.13;100.00
9899;BME280;4988;49.238;6.698;2022-12-11T00:52:57;98685.84;;;-2.10;100.00
9899;BME280;4988;49.238;6.698;2022-12-11T00:55:22;98685.81;;;-2.04;100.00
9899;BME280;4988;49.238;6.698;2022-12-11T00:57:50;98681.44;;;-1.99;100.00
9899;BME280;4988;49.238;6.698;2022-12-11T01:00:16;98685.81;;;-1.99;100.00
9899;BME280;4988;49.238;6.698;2022-12-11T01:02:42;98684.00;;;-1.86;100.00
9899;BME280;4988;49.238;6.698;2022-12-11T01:05:08;98683.97;;;-1.69;100.00
9899;BME280;4988;49.238;6.698;2022-12-11T01:07:34;98677.81;;;-1.60;100.00
9899;BME280;4988;49.238;6.698;2022-12-11T01:09:59;98676.94;;;-1.53;100.00
9899;BME280;4988;49.238;6.698;2022-12-11T01:12:43;98687.31;;;-1.38;100.00
9899;BME280;4988;49.238;6.698;2022-12-11T01:15:08;98679.50;;;-1.42;100.00
9899;BME280;4988;49.238;6.698;2022-12-11T01:17:35;98673.34;;;-1.37;100.00
9899;BME280;4988;49.238;6.698;2022-12-11T01:20:01;98679.47;;;-1.41;100.00
9899;BME280;4988;49.238;6.698;2022-12-11T01:22:26;98676.84;;;-1.41;100.00
9899;BME280;4988;49.238;6.698;2022-12-11T01:24:51;98666.50;;;-1.50;100.00
9899;BME280;4988;49.238;6.698;2022-12-11T01:27:16;98670.81;;;-1.51;100.00
9899;BME280;4988;49.238;6.698;2022-12-11T01:29:42;98674.34;;;-1.59;100.00
9899;BME280;4988;49.238;6.698;2022-12-11T01:32:07;98673.41;;;-1.49;100.00
9899;BME280;4988;49.238;6.698;2022-12-11T01:34:32;98679.47;;;-1.41;100.00
9899;BME280;4988;49.238;6.698;2022-12-11T01:36:58;98681.22;;;-1.40;100.00
9899;BME280;4988;49.238;6.698;2022-12-11T01:39:23;98695.16;;;-1.42;100.00
9899;BME280;4988;49.238;6.698;2022-12-11T01:41:49;98690.81;;;-1.45;100.00
9899;BME280;4988;49.238;6.698;2022-12-11T01:46:40;98697.81;;;-1.50;100.00
9899;BME280;4988;49.238;6.698;2022-12-11T01:49:14;98696.06;;;-1.54;100.00
9899;BME280;4988;49.238;6.698;2022-12-11T01:51:47;98698.72;;;-1.62;100.00
9899;BME280;4988;49.238;6.698;2022-12-11T01:54:16;98701.31;;;-1.60;100.00
9899;BME280;4988;49.238;6.698;2022-12-11T01:56:44;98698.72;;;-1.64;100.00
9899;BME280;4988;49.238;6.698;2022-12-11T01:59:11;98698.72;;;-1.64;100.00
9899;BME280;4988;49.238;6.698;2022-12-11T02:01:43;98693.50;;;-1.67;100.00
9899;BME280;4988;49.238;6.698;2022-12-11T02:04:10;98695.19;;;-1.50;100.00
9899;BME280;4988;49.238;6.698;2022-12-11T02:06:44;98692.59;;;-1.53;100.00
9899;BME280;4988;49.238;6.698;2022-12-11T02:09:13;98695.25;;;-1.61;100.00
9899;BME280;4988;49.238;6.698;2022-12-11T02:11:46;98691.75;;;-1.62;100.00
9899;BME280;4988;49.238;6.698;2022-12-11T02:17:05;98691.63;;;-1.35;100.00
9899;BME280;4988;49.238;6.698;2022-12-11T02:20:04;98688.00;;;-1.13;100.00
9899;BME280;4988;49.238;6.698;2022-12-11T02:28:44;98684.38;;;-0.88;100.00
9899;BME280;4988;49.238;6.698;2022-12-11T02:31:32;98677.44;;;-0.94;100.00
9899;BME280;4988;49.238;6.698;2022-12-11T02:34:09;98669.56;;;-0.89;100.00
9899;BME280;4988;49.238;6.698;2022-12-11T02:36:39;98673.06;;;-0.87;100.00
9899;BME280;4988;49.238;6.698;2022-12-11T02:39:08;98680.03;;;-0.89;100.00
9899;BME280;4988;49.238;6.698;2022-12-11T02:41:34;98672.94;;;-0.76;100.00
9899;BME280;4988;49.238;6.698;2022-12-11T02:44:01;98673.03;;;-0.86;100.00
9899;BME280;4988;49.238;6.698;2022-12-11T02:46:28;98680.06;;;-0.99;100.00
9899;BME280;4988;49.238;6.698;2022-12-11T02:48:55;98680.22;;;-1.23;100.00
9899;BME280;4988;49.238;6.698;2022-12-11T02:51:25;98682.06;;;-1.35;100.00
9899;BME280;4988;49.238;6.698;2022-12-11T02:53:53;98685.59;;;-1.48;100.00
9899;BME280;4988;49.238;6.698;2022-12-11T02:56:35;98684.78;;;-1.55;100.00
9899;BME280;4988;49.238;6.698;2022-12-11T02:59:08;98681.31;;;-1.58;100.00
9899;BME280;4988;49.238;6.698;2022-12-11T03:01:34;98683.94;;;-1.65;100.00
9899;BME280;4988;49.238;6.698;2022-12-11T03:04:00;98688.31;;;-1.71;100.00
9899;BME280;4988;49.238;6.698;2022-12-11T03:06:31;98684.00;;;-1.79;100.00
9899;BME280;4988;49.238;6.698;2022-12-11T03:08:57;98685.72;;;-1.79;100.00
9899;BME280;4988;49.238;6.698;2022-12-11T03:11:22;98685.75;;;-1.84;100.00
9899;BME280;4988;49.238;6.698;2022-12-11T03:13:48;98685.78;;;-1.87;100.00
9899;BME280;4988;49.238;6.698;2022-12-11T03:19:14;98687.41;;;-1.66;100.00
9899;BME280;4988;49.238;6.698;2022-12-11T03:24:40;98674.38;;;-1.66;100.00
9899;BME280;4988;49.238;6.698;2022-12-11T03:30:05;98672.69;;;-1.76;100.00
9899;BME280;4988;49.238;6.698;2022-12-11T03:32:39;98679.66;;;-1.80;100.00
9899;BME280;4988;49.238;6.698;2022-12-11T03:37:34;98680.50;;;-1.70;100.00
9899;BME280;4988;49.238;6.698;2022-12-11T03:40:05;98686.56;;;-1.74;100.00
9899;BME280;4988;49.238;6.698;2022-12-11T03:42:33;98689.22;;;-1.77;100.00
9899;BME280;4988;49.238;6.698;2022-12-11T03:45:00;98686.63;;;-1.79;100.00
9899;BME280;4988;49.238;6.698;2022-12-11T03:47:27;98684.88;;;-1.80;100.00
9899;BME280;4988;49.238;6.698;2022-12-11T03:49:54;98688.38;;;-1.82;100.00
9899;BME280;4988;49.238;6.698;2022-12-11T03:52:22;98680.53;;;-1.84;100.00
9899;BME280;4988;49.238;6.698;2022-12-11T03:54:48;98668.38;;;-1.86;100.00
9899;BME280;4988;49.238;6.698;2022-12-11T03:57:17;98674.44;;;-1.87;100.00
9899;BME280;4988;49.238;6.698;2022-12-11T03:59:43;98681.41;;;-1.91;100.00
9899;BME280;4988;49.238;6.698;2022-12-11T04:02:09;98679.69;;;-1.86;100.00
9899;BME280;4988;49.238;6.698;2022-12-11T04:04:38;98687.50;;;-1.86;100.00
9899;BME280;4988;49.238;6.698;2022-12-11T04:07:04;98684.88;;;-1.84;100.00
9899;BME280;4988;49.238;6.698;2022-12-11T04:09:29;98677.09;;;-1.90;100.00
9899;BME280;4988;49.238;6.698;2022-12-11T04:11:54;98677.97;;;-1.88;100.00
9899;BME280;4988;49.238;6.698;2022-12-11T04:14:20;98670.13;;;-1.93;100.00
9899;BME280;4988;49.238;6.698;2022-12-11T04:17:04;98669.28;;;-2.00;100.00
9899;BME280;4988;49.238;6.698;2022-12-11T04:19:29;98667.53;;;-2.02;100.00
9899;BME280;4988;49.238;6.698;2022-12-11T04:22:15;98666.69;;;-2.07;100.00
9899;BME280;4988;49.238;6.698;2022-12-11T04:25:01;98660.63;;;-2.06;100.00
9899;BME280;4988;49.238;6.698;2022-12-11T04:27:26;98661.47;;;-2.07;100.00
9899;BME280;4988;49.238;6.698;2022-12-11T04:30:14;98665.81;;;-2.03;100.00
9899;BME280;4988;49.238;6.698;2022-12-11T04:32:40;98663.25;;;-2.08;100.00
9899;BME280;4988;49.238;6.698;2022-12-11T04:35:07;98660.63;;;-2.16;100.00
9899;BME280;4988;49.238;6.698;2022-12-11T04:37:32;98656.31;;;-2.15;100.00
9899;BME280;4988;49.238;6.698;2022-12-11T04:39:58;98651.06;;;-2.09;100.00
9899;BME280;4988;49.238;6.698;2022-12-11T04:42:23;98644.97;;;-2.05;100.00
9899;BME280;4988;49.238;6.698;2022-12-11T04:44:48;98642.34;;;-2.05;100.00
9899;BME280;4988;49.238;6.698;2022-12-11T04:47:14;98643.19;;;-1.97;100.00
9899;BME280;4988;49.238;6.698;2022-12-11T04:49:39;98645.81;;;-2.00;100.00
9899;BME280;4988;49.238;6.698;2022-12-11T04:52:05;98649.31;;;-2.05;100.00
9899;BME280;4988;49.238;6.698;2022-12-11T04:54:30;98649.31;;;-2.08;100.00
9899;BME280;4988;49.238;6.698;2022-12-11T04:56:56;98650.19;;;-2.10;100.00
9899;BME280;4988;49.238;6.698;2022-12-11T04:59:21;98651.94;;;-2.15;100.00
9899;BME280;4988;49.238;6.698;2022-12-11T05:01:46;98645.88;;;-2.17;100.00
9899;BME280;4988;49.238;6.698;2022-12-11T05:04:12;98642.41;;;-2.14;100.00
9899;BME280;4988;49.238;6.698;2022-12-11T05:06:38;98640.63;;;-2.09;100.00
9899;BME280;4988;49.238;6.698;2022-12-11T05:09:03;98640.66;;;-2.11;100.00
9899;BME280;4988;49.238;6.698;2022-12-11T05:11:28;98648.47;;;-2.11;100.00
9899;BME280;4988;49.238;6.698;2022-12-11T05:13:54;98637.16;;;-2.11;100.00
9899;BME280;4988;49.238;6.698;2022-12-11T05:16:19;98636.28;;;-2.08;100.00
9899;BME280;4988;49.238;6.698;2022-12-11T05:18:45;98647.63;;;-2.14;100.00
9899;BME280;4988;49.238;6.698;2022-12-11T05:21:12;98647.63;;;-2.14;100.00
9899;BME280;4988;49.238;6.698;2022-12-11T05:23:38;98644.09;;;-2.13;100.00
9899;BME280;4988;49.238;6.698;2022-12-11T05:26:06;98637.16;;;-2.06;100.00
9899;BME280;4988;49.238;6.698;2022-12-11T05:28:35;98633.69;;;-2.05;100.00
9899;BME280;4988;49.238;6.698;2022-12-11T05:31:07;98632.81;;;-2.04;100.00
9899;BME280;4988;49.238;6.698;2022-12-11T05:33:33;98626.72;;;-2.02;100.00
9899;BME280;4988;49.238;6.698;2022-12-11T05:35:59;98630.16;;;-2.00;100.00
9899;BME280;4988;49.238;6.698;2022-12-11T05:38:25;98637.16;;;-2.08;100.00
9899;BME280;4988;49.238;6.698;2022-12-11T05:40:58;98638.88;;;-2.13;100.00
9899;BME280;4988;49.238;6.698;2022-12-11T05:43:25;98631.94;;;-2.10;100.00
9899;BME280;4988;49.238;6.698;2022-12-11T05:45:50;98638.91;;;-2.07;100.00
9899;BME280;4988;49.238;6.698;2022-12-11T05:48:16;98631.94;;;-2.10;100.00
9899;BME280;4988;49.238;6.698;2022-12-11T05:50:41;98637.13;;;-2.10;100.00
9899;BME280;4988;49.238;6.698;2022-12-11T05:53:06;98628.47;;;-2.13;100.00
9899;BME280;4988;49.238;6.698;2022-12-11T05:55:35;98639.78;;;-2.13;100.00
9899;BME280;4988;49.238;6.698;2022-12-11T05:58:00;98639.72;;;-2.03;100.00
9899;BME280;4988;49.238;6.698;2022-12-11T06:00:26;98637.97;;;-1.95;100.00
9899;BME280;4988;49.238;6.698;2022-12-11T06:02:51;98633.63;;;-1.95;100.00
9899;BME280;4988;49.238;6.698;2022-12-11T06:05:16;98634.53;;;-2.02;100.00
9899;BME280;4988;49.238;6.698;2022-12-11T06:07:42;98633.69;;;-2.07;100.00
9899;BME280;4988;49.238;6.698;2022-12-11T06:10:07;98634.53;;;-2.06;100.00
9899;BME280;4988;49.238;6.698;2022-12-11T06:12:33;98630.22;;;-2.15;100.00
9899;BME280;4988;49.238;6.698;2022-12-11T06:14:58;98631.94;;;-2.10;100.00
9899;BME280;4988;49.238;6.698;2022-12-11T06:17:23;98628.47;;;-2.07;100.00
9899;BME280;4988;49.238;6.698;2022-12-11T06:19:48;98631.91;;;-2.05;100.00
9899;BME280;4988;49.238;6.698;2022-12-11T06:22:14;98619.78;;;-2.11;100.00
9899;BME280;4988;49.238;6.698;2022-12-11T06:24:39;98620.66;;;-2.10;100.00
9899;BME280;4988;49.238;6.698;2022-12-11T06:27:04;98613.69;;;-2.08;100.00
9899;BME280;4988;49.238;6.698;2022-12-11T06:29:30;98605.00;;;-2.07;100.00
9899;BME280;4988;49.238;6.698;2022-12-11T06:31:55;98606.75;;;-2.11;100.00
9899;BME280;4988;49.238;6.698;2022-12-11T06:34:20;98612.00;;;-2.17;100.00
9899;BME280;4988;49.238;6.698;2022-12-11T06:36:45;98617.19;;;-2.20;100.00
9899;BME280;4988;49.238;6.698;2022-12-11T06:39:11;98610.25;;;-2.22;100.00
9899;BME280;4988;49.238;6.698;2022-12-11T06:41:36;98612.88;;;-2.22;100.00
9899;BME280;4988;49.238;6.698;2022-12-11T06:44:02;98615.47;;;-2.26;100.00
9899;BME280;4988;49.238;6.698;2022-12-11T06:46:27;98619.81;;;-2.24;100.00
9899;BME280;4988;49.238;6.698;2022-12-11T06:48:53;98618.06;;;-2.26;100.00
9899;BME280;4988;49.238;6.698;2022-12-11T06:51:20;98619.78;;;-2.18;100.00
9899;BME280;4988;49.238;6.698;2022-12-11T06:53:53;98620.66;;;-2.16;100.00
9899;BME280;4988;49.238;6.698;2022-12-11T06:56:19;98621.53;;;-2.14;100.00
9899;BME280;4988;49.238;6.698;2022-12-11T06:58:45;98622.41;;;-2.17;100.00
9899;BME280;4988;49.238;6.698;2022-12-11T07:01:22;98629.38;;;-2.19;100.00
9899;BME280;4988;49.238;6.698;2022-12-11T07:03:48;98629.38;;;-2.20;100.00
9899;BME280;4988;49.238;6.698;2022-12-11T07:06:14;98630.25;;;-2.23;100.00
9899;BME280;4988;49.238;6.698;2022-12-11T07:08:39;98622.44;;;-2.28;100.00
9899;BME280;4988;49.238;6.698;2022-12-11T07:11:11;98620.69;;;-2.32;100.00
9899;BME280;4988;49.238;6.698;2022-12-11T07:13:36;98629.41;;;-2.27;100.00
9899;BME280;4988;49.238;6.698;2022-12-11T07:16:03;98625.00;;;-2.18;100.00
9899;BME280;4988;49.238;6.698;2022-12-11T07:18:30;98629.38;;;-2.19;100.00
9899;BME280;4988;49.238;6.698;2022-12-11T07:20:57;98631.97;;;-2.17;100.00
9899;BME280;4988;49.238;6.698;2022-12-11T07:23:25;98631.94;;;-2.16;100.00
9899;BME280;4988;49.238;6.698;2022-12-11T07:25:50;98626.72;;;-2.08;100.00
9899;BME280;4988;49.238;6.698;2022-12-11T07:28:16;98621.50;;;-2.08;100.00
9899;BME280;4988;49.238;6.698;2022-12-11T07:30:42;98628.44;;;-2.04;100.00
9899;BME280;4988;49.238;6.698;2022-12-11T07:33:07;98628.44;;;-1.95;100.00
9899;BME280;4988;49.238;6.698;2022-12-11T07:35:34;98637.88;;;-1.72;100.00
9899;BME280;4988;49.238;6.698;2022-12-11T07:37:59;98638.69;;;-1.60;100.00
9899;BME280;4988;49.238;6.698;2022-12-11T07:40:25;98640.47;;;-1.67;100.00
9899;BME280;4988;49.238;6.698;2022-12-11T07:42:50;98643.06;;;-1.70;100.00
9899;BME280;4988;49.238;6.698;2022-12-11T07:45:15;98648.34;;;-1.81;100.00
9899;BME280;4988;49.238;6.698;2022-12-11T07:47:41;98650.94;;;-1.81;100.00
9899;BME280;4988;49.238;6.698;2022-12-11T07:50:07;98642.34;;;-1.96;100.00
9899;BME280;4988;49.238;6.698;2022-12-11T07:52:32;98638.00;;;-2.01;100.00
9899;BME280;4988;49.238;6.698;2022-12-11T07:54:58;98642.34;;;-2.05;100.00
9899;BME280;4988;49.238;6.698;2022-12-11T07:57:23;98642.34;;;-2.05;100.00
9899;BME280;4988;49.238;6.698;2022-12-11T07:59:49;98642.34;;;-2.03;100.00
9899;BME280;4988;49.238;6.698;2022-12-11T08:02:14;98639.75;;;-2.05;100.00
9899;BME280;4988;49.238;6.698;2022-12-11T08:04:40;98643.22;;;-2.01;100.00
9899;BME280;4988;49.238;6.698;2022-12-11T08:07:05;98637.13;;;-2.05;100.00
9899;BME280;4988;49.238;6.698;2022-12-11T08:09:31;98641.50;;;-2.10;100.00
9899;BME280;4988;49.238;6.698;2022-12-11T08:11:57;98635.41;;;-2.09;100.00
9899;BME280;4988;49.238;6.698;2022-12-11T08:14:22;98632.78;;;-2.06;100.00
9899;BME280;4988;49.238;6.698;2022-12-11T08:16:47;98632.81;;;-2.04;100.00
9899;BME280;4988;49.238;6.698;2022-12-11T08:19:14;98633.69;;;-2.05;100.00
9899;BME280;4988;49.238;6.698;2022-12-11T08:21:39;98628.44;;;-2.01;100.00
9899;BME280;4988;49.238;6.698;2022-12-11T08:24:05;98630.16;;;-2.00;100.00
9899;BME280;4988;49.238;6.698;2022-12-11T08:26:31;98627.53;;;-2.00;100.00
9899;BME280;4988;49.238;6.698;2022-12-11T08:28:57;98623.19;;;-1.98;100.00
9899;BME280;4988;49.238;6.698;2022-12-11T08:31:23;98614.50;;;-2.00;100.00
9899;BME280;4988;49.238;6.698;2022-12-11T08:33:50;98616.25;;;-1.94;100.00
9899;BME280;4988;49.238;6.698;2022-12-11T08:36:20;98619.69;;;-1.86;100.00
9899;BME280;4988;49.238;6.698;2022-12-11T08:38:54;98617.03;;;-1.83;100.00
9899;BME280;4988;49.238;6.698;2022-12-11T08:41:23;98618.75;;;-1.72;100.00
9899;BME280;4988;49.238;6.698;2022-12-11T08:43:49;98607.44;;;-1.78;100.00
9899;BME280;4988;49.238;6.698;2022-12-11T08:46:18;98610.00;;;-1.67;100.00
9899;BME280;4988;49.238;6.698;2022-12-11T08:48:44;98623.06;;;-1.68;100.00
9899;BME280;4988;49.238;6.698;2022-12-11T08:51:11;98625.63;;;-1.59;100.00
9899;BME280;4988;49.238;6.698;2022-12-11T08:53:37;98624.75;;;-1.59;100.00
9899;BME280;4988;49.238;6.698;2022-12-11T08:56:05;98616.09;;;-1.65;100.00
9899;BME280;4988;49.238;6.698;2022-12-11T08:58:31;98612.50;;;-1.45;100.00
9899;BME280;4988;49.238;6.698;2022-12-11T09:00:57;98621.13;;;-1.37;100.00
9899;BME280;4988;49.238;6.698;2022-12-11T09:03:22;98616.84;;;-1.42;100.00
9899;BME280;4988;49.238;6.698;2022-12-11T09:05:48;98609.03;;;-1.47;100.00
9899;BME280;4988;49.238;6.698;2022-12-11T09:08:13;98604.75;;;-1.57;100.00
9899;BME280;4988;49.238;6.698;2022-12-11T09:10:38;98606.50;;;-1.59;100.00
9899;BME280;4988;49.238;6.698;2022-12-11T09:13:04;98617.81;;;-1.62;100.00
9899;BME280;4988;49.238;6.698;2022-12-11T09:15:29;98610.00;;;-1.62;100.00
9899;BME280;4988;49.238;6.698;2022-12-11T09:17:55;98610.84;;;-1.62;100.00
9899;BME280;4988;49.238;6.698;2022-12-11T09:20:20;98614.41;;;-1.69;100.00
9899;BME280;4988;49.238;6.698;2022-12-11T09:22:45;98615.28;;;-1.74;100.00
9899;BME280;4988;49.238;6.698;2022-12-11T09:25:11;98612.59;;;-1.65;100.00
9899;BME280;4988;49.238;6.698;2022-12-11T09:27:37;98615.22;;;-1.64;100.00
9899;BME280;4988;49.238;6.698;2022-12-11T09:30:03;98617.81;;;-1.57;100.00
9899;BME280;4988;49.238;6.698;2022-12-11T09:32:29;98608.19;;;-1.51;100.00
9899;BME280;4988;49.238;6.698;2022-12-11T09:34:54;98599.47;;;-1.48;100.00
9899;BME280;4988;49.238;6.698;2022-12-11T09:37:20;98602.91;;;-1.41;100.00
9899;BME280;4988;49.238;6.698;2022-12-11T09:39:45;98604.56;;;-1.31;100.00
9899;BME280;4988;49.238;6.698;2022-12-11T09:42:22;98607.97;;;-1.20;100.00
9899;BME280;4988;49.238;6.698;2022-12-11T09:44:52;98619.22;;;-1.07;100.00
9899;BME280;4988;49.238;6.698;2022-12-11T09:47:33;98612.38;;;-1.30;100.00
9899;BME280;4988;49.238;6.698;2022-12-11T09:52:58;98607.22;;;-1.36;100.00
9899;BME280;4988;49.238;6.698;2022-12-11T09:55:43;98601.06;;;-1.27;100.00
9899;BME280;4988;49.238;6.698;2022-12-11T10:14:38;98586.09;;;-1.06;100.00
9899;BME280;4988;49.238;6.698;2022-12-11T10:17:35;98578.44;;;-1.26;100.00
9899;BME280;4988;49.238;6.698;2022-12-11T10:22:43;98580.91;;;-1.11;100.00
9899;BME280;4988;49.238;6.698;2022-12-11T10:25:22;98578.31;;;-1.13;100.00
9899;BME280;4988;49.238;6.698;2022-12-11T10:27:49;98577.44;;;-1.08;100.00
9899;BME280;4988;49.238;6.698;2022-12-11T10:30:20;98573.88;;;-1.01;100.00
9899;BME280;4988;49.238;6.698;2022-12-11T10:38:09;98563.34;;;-0.90;100.00
9899;BME280;4988;49.238;6.698;2022-12-11T10:40:38;98555.53;;;-0.93;100.00
9899;BME280;4988;49.238;6.698;2022-12-11T10:43:05;98556.47;;;-1.01;100.00
9899;BME280;4988;49.238;6.698;2022-12-11T10:45:31;98563.44;;;-1.03;100.00
9899;BME280;4988;49.238;6.698;2022-12-11T10:48:05;98544.16;;;-0.89;100.00
9899;BME280;4988;49.238;6.698;2022-12-11T10:50:30;98544.00;;;-0.72;100.00
9899;BME280;4988;49.238;6.698;2022-12-11T10:52:56;98537.09;;;-0.79;100.00
9899;BME280;4988;49.238;6.698;2022-12-11T10:55:37;98530.03;;;-0.70;100.00
9899;BME280;4988;49.238;6.698;2022-12-11T10:58:16;98519.53;;;-0.67;100.00
9899;BME280;4988;49.238;6.698;2022-12-11T11:00:42;98517.75;;;-0.61;100.00
9899;BME280;4988;49.238;6.698;2022-12-11T11:03:25;98521.50;;;-0.87;100.00
9899;BME280;4988;49.238;6.698;2022-12-11T11:06:15;98520.78;;;-1.03;100.00
9899;BME280;4988;49.238;6.698;2022-12-11T11:08:47;98524.25;;;-1.01;100.00
9899;BME280;4988;49.238;6.698;2022-12-11T11:11:26;98516.34;;;-0.93;100.00
9899;BME280;4988;49.238;6.698;2022-12-11T11:14:13;98513.56;;;-0.78;100.00
9899;BME280;4988;49.238;6.698;2022-12-11T11:16:40;98516.16;;;-0.75;100.00
9899;BME280;4988;49.238;6.698;2022-12-11T11:19:16;98512.63;;;-0.71;100.00
9899;BME280;4988;49.238;6.698;2022-12-11T11:21:48;98509.09;;;-0.67;100.00
9899;BME280;4988;49.238;6.698;2022-12-11T11:24:44;98503.03;;;-0.69;100.00
9899;BME280;4988;49.238;6.698;2022-12-11T11:27:28;98499.56;;;-0.71;100.00
9899;BME280;4988;49.238;6.698;2022-12-11T11:29:58;98498.59;;;-0.63;100.00
9899;BME280;4988;49.238;6.698;2022-12-11T11:32:45;98494.00;;;-0.44;100.00
9899;BME280;4988;49.238;6.698;2022-12-11T11:37:36;98492.22;;;-0.41;100.00
9899;BME280;4988;49.238;6.698;2022-12-11T11:40:10;98497.47;;;-0.41;100.00
9899;BME280;4988;49.238;6.698;2022-12-11T11:45:25;98492.22;;;-0.38;100.00
9899;BME280;4988;49.238;6.698;2022-12-11T11:48:18;98491.47;;;-0.51;100.00
9899;BME280;4988;49.238;6.698;2022-12-11T11:50:48;98488.97;;;-0.60;100.00
9899;BME280;4988;49.238;6.698;2022-12-11T11:53:21;98481.16;;;-0.60;100.00
9899;BME280;4988;49.238;6.698;2022-12-11T11:58:38;98474.19;;;-0.61;100.00
9899;BME280;4988;49.238;6.698;2022-12-11T12:01:11;98468.88;;;-0.55;100.00
9899;BME280;4988;49.238;6.698;2022-12-11T12:03:37;98467.78;;;-0.38;100.00
9899;BME280;4988;49.238;6.698;2022-12-11T12:06:05;98467.66;;;-0.27;100.00
9899;BME280;4988;49.238;6.698;2022-12-11T12:08:53;98466.75;;;-0.25;100.00
9899;BME280;4988;49.238;6.698;2022-12-11T12:11:43;98469.25;;;-0.15;100.00
9899;BME280;4988;49.238;6.698;2022-12-11T12:14:29;98459.63;;;-0.15;100.00
9899;BME280;4988;49.238;6.698;2022-12-11T12:17:23;98459.91;;;-0.32;99.87
9899;BME280;4988;49.238;6.698;2022-12-11T12:27:37;98460.84;;;-0.39;100.00
9899;BME280;4988;49.238;6.698;2022-12-11T12:30:11;98463.38;;;-0.35;100.00
9899;BME280;4988;49.238;6.698;2022-12-11T12:36:01;98459.72;;;-0.21;100.00
9899;BME280;4988;49.238;6.698;2022-12-11T12:38:41;98458.63;;;-0.03;100.00
9899;BME280;4988;49.238;6.698;2022-12-11T12:44:16;98473.91;;;0.23;100.00
9899;BME280;4988;49.238;6.698;2022-12-11T12:46:59;98477.34;;;0.28;99.46
9899;BME280;4988;49.238;6.698;2022-12-11T12:49:33;98476.50;;;0.26;98.28
9899;BME280;4988;49.238;6.698;2022-12-11T12:52:00;98473.91;;;0.25;98.49
9899;BME280;4988;49.238;6.698;2022-12-11T12:54:28;98472.28;;;0.18;98.87
9899;BME280;4988;49.238;6.698;2022-12-11T12:56:55;98466.13;;;0.20;98.81
9899;BME280;4988;49.238;6.698;2022-12-11T12:59:25;98462.84;;;0.06;99.02
9899;BME280;4988;49.238;6.698;2022-12-11T13:01:55;98467.88;;;0.21;98.78
9899;BME280;4988;49.238;6.698;2022-12-11T13:07:16;98469.59;;;0.22;98.92
9899;BME280;4988;49.238;6.698;2022-12-11T13:09:55;98469.53;;;0.25;98.84
9899;BME280;4988;49.238;6.698;2022-12-11T13:12:38;98479.31;;;0.14;98.33
9899;BME280;4988;49.238;6.698;2022-12-11T13:15:35;98480.47;;;-0.09;99.19
9899;BME280;4988;49.238;6.698;2022-12-11T13:17:53;98478.63;;;-0.01;99.54
9899;BME280;4988;49.238;6.698;2022-12-11T13:20:21;98483.88;;;-0.01;99.65
9899;BME280;4988;49.238;6.698;2022-12-11T13:22:49;98467.31;;;-0.01;99.93
9899;BME280;4988;49.238;6.698;2022-12-11T13:25:22;98466.97;;;0.22;99.72
9899;BME280;4988;49.238;6.698;2022-12-11T13:27:47;98469.34;;;0.38;99.15
9899;BME280;4988;49.238;6.698;2022-12-11T13:32:40;98479.88;;;0.35;99.13
9899;BME280;4988;49.238;6.698;2022-12-11T13:35:15;98480.06;;;0.22;98.42
9899;BME280;4988;49.238;6.698;2022-12-11T13:37:43;98486.31;;;0.12;98.28
9899;BME280;4988;49.238;6.698;2022-12-11T13:42:53;98487.28;;;0.05;99.01
9899;BME280;4988;49.238;6.698;2022-12-11T13:45:28;98488.13;;;0.07;99.17
9899;BME280;4988;49.238;6.698;2022-12-11T13:47:56;98489.06;;;0.01;99.95
9899;BME280;4988;49.238;6.698;2022-12-11T13:50:32;98495.25;;;-0.06;100.00
9899;BME280;4988;49.238;6.698;2022-12-11T13:53:00;98498.00;;;-0.14;100.00
9899;BME280;4988;49.238;6.698;2022-12-11T13:55:29;98498.88;;;-0.15;100.00
9899;BME280;4988;49.238;6.698;2022-12-11T13:57:55;98499.00;;;-0.24;100.00
9899;BME280;4988;49.238;6.698;2022-12-11T14:00:29;98502.63;;;-0.36;100.00
9899;BME280;4988;49.238;6.698;2022-12-11T14:02:58;98501.03;;;-0.46;100.00
9899;BME280;4988;49.238;6.698;2022-12-11T14:05:26;98504.53;;;-0.51;100.00
9899;BME280;4988;49.238;6.698;2022-12-11T14:07:55;98514.16;;;-0.51;100.00
9899;BME280;4988;49.238;6.698;2022-12-11T14:10:30;98508.97;;;-0.56;100.00
9899;BME280;4988;49.238;6.698;2022-12-11T14:13:02;98512.47;;;-0.58;100.00
9899;BME280;4988;49.238;6.698;2022-12-11T14:15:30;98513.34;;;-0.56;100.00
9899;BME280;4988;49.238;6.698;2022-12-11T14:17:57;98510.59;;;-0.47;100.00
9899;BME280;4988;49.238;6.698;2022-12-11T14:20:28;98505.38;;;-0.47;100.00
9899;BME280;4988;49.238;6.698;2022-12-11T14:23:06;98502.78;;;-0.49;100.00
9899;BME280;4988;49.238;6.698;2022-12-11T14:25:32;98514.94;;;-0.44;100.00
9899;BME280;4988;49.238;6.698;2022-12-11T14:27:57;98510.56;;;-0.42;100.00
9899;BME280;4988;49.238;6.698;2022-12-11T14:30:26;98519.34;;;-0.48;100.00
9899;BME280;4988;49.238;6.698;2022-12-11T14:32:58;98516.81;;;-0.54;100.00
9899;BME280;4988;49.238;6.698;2022-12-11T14:37:56;98518.50;;;-0.50;100.00
9899;BME280;4988;49.238;6.698;2022-12-11T14:40:30;98525.44;;;-0.47;100.00
9899;BME280;4988;49.238;6.698;2022-12-11T14:43:01;98517.59;;;-0.47;100.00
9899;BME280;4988;49.238;6.698;2022-12-11T14:45:33;98517.59;;;-0.47;100.00